CRB5 weather

Rivière Bell Airport
Quebec, Canada

Public forecast

Using degrees Celsius for public forecast. Weather courtesy of forecast.io.

Closest aviation weather report (METAR) to Rivière Bell Airport

Closest report is Natashquan Airport, 68.9 nm (127.7 km) NNE. Retrieved 2020/04/04 18:00 UTC (25 minutes ago):

CYNA 041800Z AUTO 25011KT 9SM BKN021 OVC027 M02/M04 A3008 RMK SLP189

Closest aviation forecast (TAF) to Rivière Bell Airport

Closest forecast is Natashquan Airport, 68.9 nm (127.7 km) NNE. Retrieved 2020/04/04 14:00 UTC (4 hours ago):

TAF CYNA 041338Z 0414/0502 VRB03KT P6SM BKN040 TEMPO 0414/0502 5SM -SHSN OVC020 RMK FCST BASED ON AUTO OBS NXT FCST BY 042000Z